Time;durP1;ratioP1;P1;durP2;ratioP2;P2;SDS_P1;SDS_P2;PMS_P1;PMS_P2;Temp;Humidity;BMP_temperature;BMP_pressure;BME280_temperature;BME280_humidity;BME280_pressure;Samples;Min_cycle;Max_cycle;Signal;HPM_P1;HPM_P2
2023/01/24 00:01:45;;;;;;;14.00;6.67;;;3.30;99.90;;;;;;5056436;28;20037;-69
2023/01/24 00:04:10;;;;;;;13.03;6.37;;;3.30;99.90;;;;;;5051404;28;20068;-69
2023/01/24 00:06:36;;;;;;;14.23;6.40;;;3.30;99.90;;;;;;5055884;28;20086;-69
2023/01/24 00:09:02;;;;;;;15.57;6.33;;;3.30;99.90;;;;;;5058439;28;20040;-65
2023/01/24 00:11:27;;;;;;;14.13;7.13;;;3.30;99.90;;;;;;5065920;28;20382;-66
2023/01/24 00:13:53;;;;;;;12.40;6.17;;;3.30;99.90;;;;;;5065120;28;20451;-66
2023/01/24 00:16:20;;;;;;;13.93;6.37;;;3.30;99.90;;;;;;5065577;28;20075;-66
2023/01/24 00:18:47;;;;;;;14.88;6.65;;;3.30;99.90;;;;;;5058540;28;20490;-66
2023/01/24 00:21:13;;;;;;;;;;;3.30;99.90;;;;;;5067251;28;20032;-66
2023/01/24 00:23:46;;;;;;;13.02;6.32;;;3.30;99.90;;;;;;5064547;28;19997;-66
2023/01/24 00:26:13;;;;;;;14.13;6.40;;;3.30;99.90;;;;;;5060114;28;20117;-66
2023/01/24 00:28:39;;;;;;;17.50;7.40;;;3.30;99.90;;;;;;5063583;28;20467;-66
2023/01/24 00:31:05;;;;;;;14.43;7.18;;;3.30;99.90;;;;;;5056346;28;20043;-66
2023/01/24 00:33:32;;;;;;;15.77;6.80;;;3.30;99.90;;;;;;5061302;28;20044;-65
2023/01/24 00:36:00;;;;;;;14.73;6.85;;;3.30;99.90;;;;;;5064369;28;20257;-66
2023/01/24 00:38:29;;;;;;;16.27;7.00;;;3.30;99.90;;;;;;5063485;28;20127;-65
2023/01/24 00:40:55;;;;;;;17.58;6.90;;;3.30;99.90;;;;;;5061421;28;20049;-65
2023/01/24 00:43:20;;;;;;;14.93;6.47;;;3.30;99.90;;;;;;5065135;28;20525;-66
2023/01/24 00:45:46;;;;;;;17.17;7.20;;;3.30;99.90;;;;;;5061751;28;20083;-65
2023/01/24 00:48:13;;;;;;;13.70;6.97;;;3.30;99.90;;;;;;5064179;28;20538;-66
2023/01/24 00:50:39;;;;;;;;;;;3.30;99.90;;;;;;5063369;28;20044;-65
2023/01/24 00:53:04;;;;;;;13.82;5.95;;;3.20;99.90;;;;;;5065511;28;19920;-65
2023/01/24 00:55:30;;;;;;;19.80;7.57;;;3.30;99.90;;;;;;5060147;28;20041;-65
2023/01/24 00:57:56;;;;;;;13.73;6.93;;;3.30;99.90;;;;;;5066112;28;20458;-66
2023/01/24 01:02:52;;;;;;;15.02;7.28;;;3.30;99.90;;;;;;5051898;28;20048;-66
2023/01/24 01:05:22;;;;;;;14.05;7.03;;;3.30;99.90;;;;;;5057339;28;20429;-66
2023/01/24 01:07:48;;;;;;;14.02;6.53;;;3.30;99.90;;;;;;5054074;28;20514;-65
2023/01/24 01:10:14;;;;;;;15.07;6.47;;;3.30;99.90;;;;;;5062356;28;20052;-65
2023/01/24 01:12:39;;;;;;;16.93;7.17;;;3.30;99.90;;;;;;5056553;28;20052;-66
2023/01/24 01:15:05;;;;;;;14.77;6.83;;;3.30;99.90;;;;;;5064210;28;20043;-65
2023/01/24 01:17:31;;;;;;;14.82;7.25;;;3.30;99.90;;;;;;5058034;28;20405;-65
2023/01/24 01:19:58;;;;;;;12.13;6.70;;;3.30;99.90;;;;;;5064131;28;20044;-65
2023/01/24 01:22:24;;;;;;;17.40;6.93;;;3.30;99.90;;;;;;5057855;28;20076;-65
2023/01/24 01:24:50;;;;;;;14.43;6.85;;;3.30;99.90;;;;;;5058688;28;20133;-65
2023/01/24 01:27:15;;;;;;;15.30;6.80;;;3.30;99.90;;;;;;5058568;28;20033;-66
2023/01/24 01:29:43;;;;;;;12.37;6.73;;;3.20;99.90;;;;;;5053085;28;20083;-65
2023/01/24 01:32:11;;;;;;;15.70;7.43;;;3.20;99.90;;;;;;5054029;28;20043;-65
2023/01/24 01:34:37;;;;;;;15.13;7.15;;;3.30;99.90;;;;;;5057252;28;20103;-66
2023/01/24 01:37:02;;;;;;;12.60;6.30;;;3.30;99.90;;;;;;5057613;28;20051;-65
2023/01/24 01:39:28;;;;;;;14.27;6.63;;;3.30;99.90;;;;;;5053989;28;20044;-66
2023/01/24 01:41:54;;;;;;;12.87;6.07;;;3.30;99.90;;;;;;5053295;28;20044;-65
2023/01/24 01:44:38;;;;;;;14.67;7.10;;;3.30;99.90;;;;;;5057142;28;20406;-65
2023/01/24 01:47:33;;;;;;;14.43;7.40;;;3.30;99.90;;;;;;5051974;28;20056;-65
2023/01/24 01:50:07;;;;;;;14.02;6.97;;;3.30;99.90;;;;;;5041214;28;20052;-65
2023/01/24 01:52:36;;;;;;;14.80;7.10;;;3.30;99.90;;;;;;5054944;28;20036;-65
2023/01/24 01:55:09;;;;;;;14.70;6.53;;;3.30;99.90;;;;;;5058340;28;20510;-65
2023/01/24 01:57:36;;;;;;;14.60;6.03;;;3.30;99.90;;;;;;5057888;28;20064;-65
2023/01/24 02:00:08;;;;;;;13.90;6.85;;;3.30;99.90;;;;;;5059171;28;20547;-65
2023/01/24 02:02:36;;;;;;;13.32;6.28;;;3.30;99.90;;;;;;5056482;28;20041;-65
2023/01/24 02:05:06;;;;;;;12.90;6.05;;;3.30;99.90;;;;;;5050420;28;20055;-66
2023/01/24 02:07:53;;;;;;;12.93;6.18;;;3.30;99.90;;;;;;5059657;28;20041;-65
2023/01/24 02:10:22;;;;;;;16.88;6.47;;;3.30;99.90;;;;;;5050134;28;20049;-66
2023/01/24 02:12:51;;;;;;;9.82;5.13;;;3.30;99.90;;;;;;5062125;28;20047;-66
2023/01/24 02:18:05;;;;;;;14.00;7.35;;;3.30;99.90;;;;;;5068915;28;20033;-65
2023/01/24 02:20:38;;;;;;;14.32;6.35;;;3.30;99.90;;;;;;5065014;28;20123;-65
2023/01/24 02:23:20;;;;;;;13.30;6.38;;;3.30;99.90;;;;;;5061765;28;20470;-66
2023/01/24 02:25:58;;;;;;;16.33;7.40;;;3.30;99.90;;;;;;5060316;28;20131;-65
2023/01/24 02:28:24;;;;;;;14.60;6.82;;;3.30;99.90;;;;;;5057427;28;20048;-66
2023/01/24 02:30:50;;;;;;;14.53;6.50;;;3.30;99.90;;;;;;5051721;28;20175;-65
2023/01/24 02:33:19;;;;;;;13.43;5.83;;;3.30;99.90;;;;;;5060965;28;20028;-65
2023/01/24 02:35:46;;;;;;;11.38;5.85;;;3.30;99.90;;;;;;5054250;28;20032;-65
2023/01/24 02:38:32;;;;;;;13.27;6.57;;;3.30;99.90;;;;;;5062166;28;20121;-66
2023/01/24 02:41:06;;;;;;;14.52;6.63;;;3.30;99.90;;;;;;5058879;28;20482;-65
2023/01/24 02:43:36;;;;;;;14.73;7.30;;;3.30;99.90;;;;;;5064422;28;20123;-66
2023/01/24 02:46:01;;;;;;;14.25;6.63;;;3.30;99.90;;;;;;5054931;28;20044;-65
2023/01/24 02:48:27;;;;;;;13.30;6.83;;;3.30;99.90;;;;;;5065292;28;20036;-65
2023/01/24 02:53:40;;;;;;;14.18;6.13;;;3.40;99.90;;;;;;5063413;28;20045;-66
2023/01/24 02:58:53;;;;;;;16.20;7.38;;;3.30;99.90;;;;;;5056260;28;20470;-65
2023/01/24 03:01:22;;;;;;;14.38;6.35;;;3.30;99.90;;;;;;5061222;28;20438;-65
2023/01/24 03:03:49;;;;;;;15.95;6.82;;;3.30;99.90;;;;;;5057865;28;20089;-65
2023/01/24 03:06:16;;;;;;;15.63;6.93;;;3.30;99.90;;;;;;5064119;28;20487;-66
2023/01/24 03:08:45;;;;;;;13.23;6.78;;;3.30;99.90;;;;;;5061250;28;20036;-65
2023/01/24 03:11:11;;;;;;;13.77;6.60;;;3.30;99.90;;;;;;5060023;28;20086;-65
2023/01/24 03:35:53;;;;;;;13.52;6.70;;;3.30;99.90;;;;;;5060740;28;20398;-65
2023/01/24 03:41:05;;;;;;;13.77;6.72;;;3.40;99.90;;;;;;5054109;28;20053;-66
2023/01/24 03:43:32;;;;;;;12.55;6.53;;;3.30;99.90;;;;;;5055197;28;20124;-65
2023/01/24 03:45:57;;;;;;;;;;;3.30;99.90;;;;;;5061572;28;20037;-65
2023/01/24 03:48:26;;;;;;;13.25;6.43;;;3.30;99.90;;;;;;5063846;28;20263;-65
2023/01/24 03:53:37;;;;;;;10.98;5.43;;;3.30;99.90;;;;;;5060932;28;20032;-65
2023/01/24 03:56:03;;;;;;;10.30;4.70;;;3.30;99.90;;;;;;5060662;28;20083;-66
2023/01/24 03:58:30;;;;;;;12.60;5.20;;;3.30;99.90;;;;;;5060535;28;20066;-66
2023/01/24 04:01:02;;;;;;;10.75;5.47;;;3.30;99.90;;;;;;5062588;28;20036;-65
2023/01/24 04:03:32;;;;;;;10.38;5.85;;;3.40;99.90;;;;;;5065898;28;20125;-66
2023/01/24 04:05:58;;;;;;;12.93;6.50;;;3.30;99.90;;;;;;5061813;28;20041;-65
2023/01/24 04:08:24;;;;;;;13.65;6.00;;;3.30;99.90;;;;;;5065795;28;20037;-65
2023/01/24 04:10:49;;;;;;;12.27;5.70;;;3.30;99.90;;;;;;5053876;28;20086;-65
2023/01/24 04:13:15;;;;;;;12.43;6.00;;;3.30;99.90;;;;;;5061636;28;20037;-65
2023/01/24 04:15:41;;;;;;;14.07;6.17;;;3.30;99.90;;;;;;5062319;28;20051;-65
2023/01/24 04:18:07;;;;;;;12.23;6.23;;;3.30;99.90;;;;;;5060359;28;20044;-66
2023/01/24 04:20:35;;;;;;;13.60;6.55;;;3.30;99.90;;;;;;5056209;28;20040;-65
2023/01/24 04:23:02;;;;;;;14.63;7.38;;;3.30;99.90;;;;;;5063531;28;20045;-66
2023/01/24 04:25:28;;;;;;;11.63;6.40;;;3.30;99.90;;;;;;5060898;28;20118;-65
2023/01/24 04:27:55;;;;;;;14.67;6.33;;;3.30;99.90;;;;;;5060934;28;20518;-65
2023/01/24 04:30:21;;;;;;;13.65;6.60;;;3.40;99.90;;;;;;5064031;28;20328;-65
2023/01/24 04:32:46;;;;;;;14.17;6.50;;;3.30;99.90;;;;;;5062771;28;20281;-65
2023/01/24 04:35:24;;;;;;;13.07;6.23;;;3.30;99.90;;;;;;5066190;28;20044;-65
2023/01/24 04:37:50;;;;;;;11.07;5.78;;;3.30;99.90;;;;;;5063724;28;20040;-65
2023/01/24 04:40:16;;;;;;;13.85;6.57;;;3.30;99.90;;;;;;5058992;28;20590;-65
2023/01/24 04:42:42;;;;;;;11.57;6.60;;;3.30;99.90;;;;;;5058942;28;20373;-65
2023/01/24 04:45:09;;;;;;;14.13;6.00;;;3.30;99.90;;;;;;5058022;28;20033;-66
2023/01/24 04:47:34;;;;;;;11.73;5.88;;;3.30;99.90;;;;;;5062889;28;20071;-65
2023/01/24 04:50:00;;;;;;;11.30;5.20;;;3.30;99.90;;;;;;5064119;28;20110;-65
2023/01/24 04:52:26;;;;;;;12.37;5.90;;;3.30;99.90;;;;;;5060233;28;20067;-65
2023/01/24 04:54:51;;;;;;;11.60;5.30;;;3.30;99.90;;;;;;5059768;28;20032;-65
2023/01/24 04:57:18;;;;;;;11.67;5.47;;;3.40;99.90;;;;;;5062799;28;20040;-65
2023/01/24 04:59:44;;;;;;;13.48;6.38;;;3.30;99.90;;;;;;5054244;28;20087;-65
2023/01/24 05:02:09;;;;;;;11.13;5.65;;;3.30;99.90;;;;;;5058946;28;20098;-65
2023/01/24 05:04:35;;;;;;;10.27;5.17;;;3.30;99.90;;;;;;5062720;28;20052;-65
2023/01/24 05:07:01;;;;;;;10.93;5.83;;;3.30;99.90;;;;;;5054714;28;20033;-65
2023/01/24 05:09:27;;;;;;;13.27;6.22;;;3.30;99.90;;;;;;5057799;28;20095;-65
2023/01/24 05:11:52;;;;;;;10.73;5.57;;;3.30;99.90;;;;;;5061896;28;20072;-65
2023/01/24 05:14:18;;;;;;;12.10;5.57;;;3.30;99.90;;;;;;5059554;28;20040;-65
2023/01/24 05:16:44;;;;;;;12.83;5.37;;;3.30;99.90;;;;;;5055895;28;20060;-66
2023/01/24 05:19:09;;;;;;;12.73;6.00;;;3.30;99.90;;;;;;5060641;28;20036;-65
2023/01/24 05:21:35;;;;;;;13.37;6.40;;;3.30;99.90;;;;;;5064775;28;20044;-65
2023/01/24 05:24:01;;;;;;;11.33;5.83;;;3.30;99.90;;;;;;5061896;28;20048;-64
2023/01/24 05:26:27;;;;;;;13.07;5.90;;;3.30;99.90;;;;;;5059952;28;20143;-64
2023/01/24 05:28:53;;;;;;;14.25;6.75;;;3.30;99.90;;;;;;5055037;28;20037;-64
2023/01/24 05:31:20;;;;;;;14.57;6.63;;;3.30;99.90;;;;;;5057406;28;20044;-64
2023/01/24 05:33:45;;;;;;;14.75;7.43;;;3.30;99.90;;;;;;5061586;28;20120;-64
2023/01/24 05:36:15;;;;;;;17.67;7.00;;;3.20;99.90;;;;;;5061692;28;20454;-65
2023/01/24 05:38:42;;;;;;;15.10;7.50;;;3.20;99.90;;;;;;5059773;28;20293;-65
2023/01/24 05:41:12;;;;;;;17.00;7.07;;;3.30;99.90;;;;;;5058525;28;20040;-65
2023/01/24 05:43:38;;;;;;;12.02;6.40;;;3.30;99.90;;;;;;5058329;28;20051;-65
2023/01/24 05:46:07;;;;;;;12.43;6.15;;;3.20;99.90;;;;;;5066040;28;20097;-65
2023/01/24 05:48:38;;;;;;;13.20;7.00;;;3.20;99.90;;;;;;5059510;28;20136;-65
2023/01/24 05:51:11;;;;;;;16.35;7.95;;;3.20;99.90;;;;;;5067880;28;20036;-65
2023/01/24 05:53:38;;;;;;;16.08;7.55;;;3.20;99.90;;;;;;5066213;28;20536;-65
2023/01/24 05:56:07;;;;;;;17.17;7.55;;;3.20;99.90;;;;;;5066899;28;20072;-65
2023/01/24 05:58:34;;;;;;;17.10;7.78;;;3.20;99.90;;;;;;5062325;28;20138;-65
2023/01/24 06:01:00;;;;;;;16.88;7.82;;;3.20;99.90;;;;;;5064017;28;20169;-66
2023/01/24 06:03:26;;;;;;;16.17;7.07;;;3.20;99.90;;;;;;5060473;28;20238;-65
2023/01/24 06:05:54;;;;;;;16.83;7.77;;;3.20;99.90;;;;;;5056752;28;20516;-66
2023/01/24 06:08:21;;;;;;;16.75;7.35;;;3.20;99.90;;;;;;5060134;28;20104;-65
2023/01/24 06:10:46;;;;;;;16.63;8.48;;;3.20;99.90;;;;;;5063350;28;20040;-65
2023/01/24 06:13:13;;;;;;;16.00;7.37;;;3.20;99.90;;;;;;5061128;28;20097;-65
2023/01/24 06:15:39;;;;;;;14.75;7.13;;;3.20;99.90;;;;;;5062867;28;20078;-65
2023/01/24 06:18:06;;;;;;;16.67;7.90;;;3.20;99.90;;;;;;5056529;28;20041;-65
2023/01/24 06:20:31;;;;;;;;;;;3.20;99.90;;;;;;5052249;28;20047;-65
2023/01/24 06:23:09;;;;;;;16.70;7.32;;;3.20;99.90;;;;;;5056289;28;20187;-65
2023/01/24 06:25:35;;;;;;;15.98;7.68;;;3.20;99.90;;;;;;5076702;28;20079;-66
2023/01/24 06:28:01;;;;;;;16.67;7.65;;;3.20;99.90;;;;;;5055751;28;20036;-65
2023/01/24 06:30:27;;;;;;;14.90;7.47;;;3.20;99.90;;;;;;5054021;28;20055;-65
2023/01/24 06:33:12;;;;;;;18.95;9.43;;;3.20;99.90;;;;;;5060521;28;20040;-65
2023/01/24 06:35:58;;;;;;;18.13;8.25;;;3.10;99.90;;;;;;5060945;28;20550;-65
2023/01/24 06:38:24;;;;;;;18.30;8.05;;;3.20;99.90;;;;;;5057495;28;20396;-65
2023/01/24 06:40:58;;;;;;;16.02;7.95;;;3.10;99.90;;;;;;5047928;28;20156;-65
2023/01/24 06:43:24;;;;;;;16.88;7.65;;;3.10;99.90;;;;;;5057021;28;20123;-66
2023/01/24 06:45:49;;;;;;;18.43;8.03;;;3.10;99.90;;;;;;5055155;28;20036;-65
2023/01/24 06:48:15;;;;;;;18.57;8.27;;;3.10;99.90;;;;;;5055616;28;20634;-65
2023/01/24 06:50:41;;;;;;;17.87;8.03;;;3.10;99.90;;;;;;5054694;28;20075;-68
2023/01/24 06:53:07;;;;;;;17.33;8.37;;;3.10;99.90;;;;;;5061191;28;20078;-66
2023/01/24 06:55:34;;;;;;;;;;;3.10;99.90;;;;;;5058187;28;20119;-66
2023/01/24 06:58:01;;;;;;;16.60;8.55;;;3.10;99.90;;;;;;5057902;28;20107;-66
2023/01/24 07:00:28;;;;;;;17.10;8.73;;;3.10;99.90;;;;;;5057390;28;20051;-66
2023/01/24 07:03:02;;;;;;;17.85;8.50;;;3.10;99.90;;;;;;5056935;28;20041;-65
2023/01/24 07:05:28;;;;;;;18.27;8.68;;;3.10;99.90;;;;;;5062766;28;20078;-66
2023/01/24 07:07:55;;;;;;;13.43;7.63;;;3.10;99.90;;;;;;5053802;28;20482;-66
2023/01/24 07:10:20;;;;;;;18.90;8.80;;;3.10;99.90;;;;;;5051745;28;20043;-66
2023/01/24 07:12:47;;;;;;;20.07;9.47;;;3.10;99.90;;;;;;5062067;28;20487;-66
2023/01/24 07:15:15;;;;;;;16.48;7.43;;;3.10;99.90;;;;;;5062763;28;20041;-65
2023/01/24 07:17:41;;;;;;;19.48;8.23;;;3.10;99.90;;;;;;5055669;28;20136;-68
2023/01/24 07:20:07;;;;;;;16.98;8.15;;;3.10;99.90;;;;;;5055637;28;20452;-65
2023/01/24 07:22:39;;;;;;;16.00;7.78;;;3.10;99.90;;;;;;5062104;28;20072;-66
2023/01/24 07:25:26;;;;;;;15.90;7.50;;;3.10;99.90;;;;;;5064058;28;20044;-65
2023/01/24 07:27:52;;;;;;;16.38;8.13;;;3.10;99.90;;;;;;5060057;28;20045;-65
2023/01/24 07:30:18;;;;;;;16.20;7.30;;;3.10;99.90;;;;;;5063173;28;20554;-66
2023/01/24 07:32:43;;;;;;;17.90;8.63;;;3.00;99.90;;;;;;5062041;28;20056;-66
2023/01/24 07:35:09;;;;;;;20.17;8.47;;;3.00;99.90;;;;;;5057244;28;20037;-66
2023/01/24 07:37:35;;;;;;;16.95;8.18;;;3.00;99.90;;;;;;5062299;28;20387;-65
2023/01/24 07:40:01;;;;;;;16.57;7.93;;;3.00;99.90;;;;;;5060371;28;20692;-65
2023/01/24 07:42:26;;;;;;;15.17;7.37;;;3.00;99.90;;;;;;5060617;28;20063;-65
2023/01/24 07:44:53;;;;;;;15.63;7.83;;;3.00;99.90;;;;;;5063837;28;20033;-66
2023/01/24 07:47:19;;;;;;;15.88;6.75;;;3.00;99.90;;;;;;5063001;28;20055;-66
2023/01/24 07:49:45;;;;;;;17.58;8.38;;;3.00;99.90;;;;;;5062227;28;20048;-65
2023/01/24 07:52:11;;;;;;;18.10;8.33;;;3.00;99.90;;;;;;5066167;28;20661;-66
2023/01/24 07:54:37;;;;;;;17.92;8.45;;;3.00;99.90;;;;;;5062199;28;20044;-65
2023/01/24 07:57:03;;;;;;;14.67;7.60;;;3.00;99.90;;;;;;5064499;28;20044;-65
2023/01/24 07:59:31;;;;;;;17.75;8.43;;;3.10;99.90;;;;;;5061466;28;20032;-68
2023/01/24 08:01:57;;;;;;;19.47;8.47;;;3.10;99.90;;;;;;5059706;28;20043;-66
2023/01/24 08:04:22;;;;;;;15.60;7.87;;;3.10;99.90;;;;;;5059007;28;20124;-66
2023/01/24 08:09:32;;;;;;;18.67;8.23;;;3.00;99.90;;;;;;5060087;28;20074;-65
2023/01/24 08:11:58;;;;;;;14.70;8.17;;;3.00;99.90;;;;;;5057976;28;20056;-67
2023/01/24 08:14:23;;;;;;;14.90;8.40;;;3.00;99.90;;;;;;5064676;28;20037;-66
2023/01/24 08:16:49;;;;;;;14.27;7.37;;;3.10;99.90;;;;;;5061830;28;20033;-66
2023/01/24 08:19:15;;;;;;;16.13;7.10;;;3.10;99.90;;;;;;5067539;28;20593;-66
2023/01/24 08:21:41;;;;;;;13.90;7.07;;;3.10;99.90;;;;;;5064353;28;20089;-66
2023/01/24 08:24:07;;;;;;;13.75;6.93;;;3.10;99.90;;;;;;5060601;28;20525;-66
2023/01/24 08:26:33;;;;;;;17.00;7.45;;;3.10;99.90;;;;;;5066985;28;20040;-66
2023/01/24 08:28:59;;;;;;;13.97;7.23;;;3.10;99.90;;;;;;5063175;28;20094;-66
2023/01/24 08:31:25;;;;;;;15.18;7.43;;;3.10;99.90;;;;;;5063769;28;20409;-66
2023/01/24 08:33:51;;;;;;;17.27;6.43;;;3.00;99.90;;;;;;5063496;28;20152;-66
2023/01/24 08:36:19;;;;;;;;;;;3.10;99.90;;;;;;5062934;28;20102;-66
2023/01/24 08:38:45;;;;;;;15.07;6.90;;;3.00;99.90;;;;;;5065171;28;19959;-66
2023/01/24 08:41:11;;;;;;;12.80;6.53;;;3.10;99.90;;;;;;5059209;28;20481;-66
2023/01/24 08:43:36;;;;;;;14.25;6.85;;;3.10;99.90;;;;;;5061349;28;20665;-66
2023/01/24 08:46:02;;;;;;;14.23;6.43;;;3.10;99.90;;;;;;5063262;28;20033;-66
2023/01/24 08:48:29;;;;;;;13.07;6.67;;;3.10;99.90;;;;;;5060274;28;20028;-66
2023/01/24 08:50:54;;;;;;;12.50;6.47;;;3.00;99.90;;;;;;5060516;28;20037;-66
2023/01/24 08:53:20;;;;;;;15.77;6.63;;;3.00;99.90;;;;;;5058147;28;20043;-66
2023/01/24 08:55:49;;;;;;;13.40;6.40;;;3.00;99.90;;;;;;5064348;28;20044;-66
2023/01/24 08:58:15;;;;;;;14.27;6.45;;;3.10;99.90;;;;;;5059695;28;20051;-66
2023/01/24 09:00:40;;;;;;;14.85;6.07;;;3.00;99.90;;;;;;5064343;28;20374;-66
2023/01/24 09:03:06;;;;;;;15.13;5.93;;;3.10;99.90;;;;;;5061214;28;20094;-66
2023/01/24 09:05:32;;;;;;;16.87;7.07;;;3.10;99.90;;;;;;5058090;28;20055;-66
2023/01/24 09:07:58;;;;;;;14.90;6.93;;;3.10;99.90;;;;;;5054841;28;20534;-66
2023/01/24 09:10:24;;;;;;;15.05;7.13;;;3.10;99.90;;;;;;5057566;28;20044;-65
2023/01/24 09:12:50;;;;;;;13.25;6.28;;;3.10;99.90;;;;;;5055275;28;20136;-66
2023/01/24 09:15:16;;;;;;;15.13;6.63;;;3.10;99.90;;;;;;5062280;28;20091;-66
2023/01/24 09:17:41;;;;;;;15.93;6.53;;;3.10;99.90;;;;;;5064461;28;20495;-66
2023/01/24 09:20:08;;;;;;;12.63;6.80;;;3.10;99.90;;;;;;5055940;28;20737;-65
2023/01/24 09:22:33;;;;;;;12.00;6.40;;;3.10;99.90;;;;;;5061794;28;20040;-66
2023/01/24 09:24:59;;;;;;;17.60;6.53;;;3.10;99.90;;;;;;5057008;28;20054;-66
2023/01/24 09:27:25;;;;;;;15.57;5.43;;;3.10;99.90;;;;;;5067312;28;20051;-66
2023/01/24 09:29:50;;;;;;;12.93;6.07;;;3.20;99.90;;;;;;5058032;28;20398;-66
2023/01/24 09:32:16;;;;;;;11.27;5.50;;;3.20;99.90;;;;;;5065212;28;20043;-65
2023/01/24 09:34:46;;;;;;;13.38;6.18;;;3.20;99.90;;;;;;5063943;28;20063;-66
2023/01/24 09:37:22;;;;;;;12.98;6.25;;;3.20;99.90;;;;;;5044580;28;20383;-66
2023/01/24 09:39:48;;;;;;;12.82;6.30;;;3.20;99.90;;;;;;5053233;28;20041;-66
2023/01/24 09:42:40;;;;;;;10.35;5.97;;;3.20;99.90;;;;;;5060339;28;20040;-65
2023/01/24 09:45:45;;;;;;;12.07;5.88;;;3.20;99.90;;;;;;5056360;28;20071;-65
2023/01/24 09:48:15;;;;;;;12.82;6.25;;;3.20;99.90;;;;;;5015037;28;20045;-65
2023/01/24 09:50:54;;;;;;;12.57;6.10;;;3.30;99.90;;;;;;5054593;28;20132;-66
2023/01/24 09:53:39;;;;;;;12.48;5.28;;;3.30;99.90;;;;;;5053401;28;20068;-66
2023/01/24 09:56:11;;;;;;;13.55;6.30;;;3.30;99.90;;;;;;5063605;28;20048;-66
2023/01/24 09:58:43;;;;;;;11.73;5.70;;;3.30;99.90;;;;;;5060081;28;20072;-65
2023/01/24 10:01:14;;;;;;;12.57;5.78;;;3.30;99.90;;;;;;5057434;28;20048;-65
2023/01/24 10:03:41;;;;;;;12.25;6.68;;;3.30;99.90;;;;;;5060488;28;20044;-66
2023/01/24 10:06:10;;;;;;;10.02;5.22;;;3.30;99.90;;;;;;5062214;28;20402;-66
2023/01/24 10:08:50;;;;;;;13.95;6.50;;;3.30;99.90;;;;;;5058618;28;20068;-66
2023/01/24 10:11:47;;;;;;;11.68;5.57;;;3.30;99.90;;;;;;5059644;28;20486;-66
2023/01/24 10:14:44;;;;;;;13.13;6.60;;;3.30;99.90;;;;;;5056384;28;20045;-66
2023/01/24 10:17:37;;;;;;;10.80;5.72;;;3.20;99.90;;;;;;5060336;28;20036;-66
2023/01/24 10:20:21;;;;;;;12.27;5.85;;;3.20;99.90;;;;;;5062341;28;20126;-65
2023/01/24 10:23:11;;;;;;;13.27;5.72;;;3.20;99.90;;;;;;5057710;28;20403;-66
2023/01/24 10:26:05;;;;;;;12.02;5.72;;;3.30;99.90;;;;;;5060871;28;20040;-66
2023/01/24 10:28:40;;;;;;;14.95;6.40;;;3.30;99.90;;;;;;5060776;28;20039;-66
2023/01/24 10:31:19;;;;;;;13.80;6.10;;;3.30;99.90;;;;;;5058742;28;20041;-66
2023/01/24 10:34:09;;;;;;;12.27;5.97;;;3.30;99.90;;;;;;5058393;28;20063;-66
2023/01/24 10:36:43;;;;;;;12.90;5.72;;;3.30;99.90;;;;;;5034132;28;20322;-65
2023/01/24 10:39:10;;;;;;;13.70;6.10;;;3.30;99.90;;;;;;5056018;28;20134;-66
2023/01/24 10:41:36;;;;;;;12.10;6.45;;;3.30;99.90;;;;;;5058476;28;21495;-65
2023/01/24 10:44:30;;;;;;;12.65;6.05;;;3.30;99.90;;;;;;5056938;28;20071;-66
2023/01/24 10:47:02;;;;;;;12.35;6.22;;;3.40;99.90;;;;;;5054091;28;20449;-66
2023/01/24 10:49:36;;;;;;;11.88;6.03;;;3.40;99.90;;;;;;5062895;28;20314;-66
2023/01/24 10:52:08;;;;;;;18.08;7.70;;;3.40;99.90;;;;;;5052687;28;20093;-66
2023/01/24 10:54:55;;;;;;;11.10;5.88;;;3.40;99.90;;;;;;5061137;28;20046;-66
2023/01/24 10:57:33;;;;;;;13.27;5.82;;;3.40;99.90;;;;;;5059545;28;20048;-66
2023/01/24 11:00:29;;;;;;;12.77;6.75;;;3.40;99.90;;;;;;5064155;28;20044;-65
2023/01/24 11:03:00;;;;;;;11.02;5.85;;;3.40;99.90;;;;;;5057475;28;20139;-66
2023/01/24 11:05:50;;;;;;;12.93;5.93;;;3.40;99.90;;;;;;5056638;28;20060;-66
2023/01/24 11:08:23;;;;;;;12.10;6.15;;;3.50;99.90;;;;;;5060636;28;20033;-66
2023/01/24 11:10:58;;;;;;;14.00;6.28;;;3.40;99.90;;;;;;5055635;28;20048;-66
2023/01/24 11:13:25;;;;;;;16.08;6.18;;;3.40;99.90;;;;;;5054428;28;20040;-65
2023/01/24 11:15:55;;;;;;;14.73;6.63;;;3.50;99.90;;;;;;5055520;28;20048;-65
2023/01/24 11:18:27;;;;;;;14.40;6.13;;;3.40;99.90;;;;;;5061051;28;20036;-65
2023/01/24 11:21:16;;;;;;;15.80;7.18;;;3.50;99.90;;;;;;5060357;28;20162;-65
2023/01/24 11:23:43;;;;;;;13.30;6.57;;;3.50;99.90;;;;;;5063194;28;20052;-65
2023/01/24 11:26:52;;;;;;;15.32;6.90;;;3.50;99.90;;;;;;5059684;28;20039;-67
2023/01/24 11:29:17;;;;;;;14.63;6.80;;;3.50;99.90;;;;;;5051626;28;20135;-65
2023/01/24 11:31:47;;;;;;;12.77;6.47;;;3.50;99.90;;;;;;5062326;28;20211;-65
2023/01/24 11:34:42;;;;;;;12.75;6.43;;;3.50;99.90;;;;;;5049996;28;20113;-65
2023/01/24 11:37:31;;;;;;;12.70;6.90;;;3.50;99.90;;;;;;5058198;28;20048;-65
2023/01/24 11:40:20;;;;;;;15.77;6.47;;;3.50;99.90;;;;;;5050918;28;20045;-65
2023/01/24 11:43:03;;;;;;;12.75;6.57;;;3.50;99.90;;;;;;5059057;28;20067;-65
2023/01/24 11:46:05;;;;;;;15.70;6.28;;;3.50;99.90;;;;;;5063592;28;20052;-65
2023/01/24 11:48:54;;;;;;;14.13;6.20;;;3.50;99.90;;;;;;5060706;28;20033;-65
2023/01/24 11:51:39;;;;;;;12.57;5.80;;;3.50;99.90;;;;;;5059659;28;20072;-65
2023/01/24 11:54:22;;;;;;;12.73;6.90;;;3.50;99.90;;;;;;5059170;28;20047;-65
2023/01/24 11:57:02;;;;;;;13.57;6.68;;;3.50;99.90;;;;;;5062437;28;20045;-65
2023/01/24 11:59:27;;;;;;;13.25;7.18;;;3.50;99.90;;;;;;5059134;28;20129;-65
2023/01/24 12:02:12;;;;;;;13.33;6.57;;;3.50;99.90;;;;;;5058114;28;20033;-66
2023/01/24 12:05:09;;;;;;;12.23;5.97;;;3.60;99.90;;;;;;5053212;28;20044;-66
2023/01/24 12:08:00;;;;;;;13.98;6.50;;;3.60;99.90;;;;;;5060859;28;20400;-66
2023/01/24 12:10:35;;;;;;;12.13;6.50;;;3.50;99.90;;;;;;5058327;28;20491;-66
2023/01/24 12:13:22;;;;;;;13.82;6.65;;;3.50;99.90;;;;;;5063366;28;20450;-66
2023/01/24 12:16:24;;;;;;;15.25;6.47;;;3.50;99.90;;;;;;5062603;28;20048;-66
2023/01/24 12:19:25;;;;;;;13.02;6.15;;;3.50;99.90;;;;;;5061074;28;20048;-65
2023/01/24 12:21:56;;;;;;;14.15;6.57;;;3.50;99.90;;;;;;5069816;28;20040;-65
2023/01/24 12:24:26;;;;;;;11.18;6.43;;;3.50;99.90;;;;;;5063154;28;20040;-68
2023/01/24 12:26:57;;;;;;;12.75;6.18;;;3.50;99.90;;;;;;5067571;28;20082;-66
2023/01/24 12:29:25;;;;;;;14.13;6.18;;;3.50;99.90;;;;;;5065654;28;20040;-66
2023/01/24 12:32:26;;;;;;;13.60;6.28;;;3.50;99.90;;;;;;5057882;28;20063;-65
2023/01/24 12:35:11;;;;;;;13.13;6.30;;;3.60;99.90;;;;;;5059111;28;20067;-65
2023/01/24 12:38:11;;;;;;;12.20;6.63;;;3.50;99.90;;;;;;5067109;28;20586;-66
2023/01/24 12:41:09;;;;;;;14.45;6.85;;;3.60;99.90;;;;;;5065297;28;20055;-66
2023/01/24 12:44:25;;;;;;;14.77;6.60;;;3.60;99.90;;;;;;5065480;28;20135;-66
2023/01/24 12:47:15;;;;;;;13.82;6.75;;;3.60;99.90;;;;;;5052452;28;20040;-65
2023/01/24 12:50:00;;;;;;;16.73;7.30;;;3.70;99.90;;;;;;5062957;28;20048;-66
2023/01/24 12:52:44;;;;;;;14.80;6.60;;;3.70;99.90;;;;;;5057557;28;20033;-66
2023/01/24 12:55:20;;;;;;;13.50;6.50;;;3.70;99.90;;;;;;5057178;28;20114;-66
2023/01/24 12:57:51;;;;;;;15.45;7.57;;;3.70;99.90;;;;;;5061904;28;20419;-65
2023/01/24 13:00:22;;;;;;;13.77;6.03;;;3.70;99.90;;;;;;5065451;28;20134;-66
2023/01/24 13:03:19;;;;;;;15.50;6.72;;;3.70;99.90;;;;;;5075123;22;20037;-67
2023/01/24 13:06:09;;;;;;;14.13;7.70;;;3.80;99.90;;;;;;5065581;28;20337;-68
2023/01/24 13:08:47;;;;;;;15.35;6.97;;;3.70;99.90;;;;;;5062793;28;20036;-67
2023/01/24 13:11:25;;;;;;;13.70;7.47;;;3.70;99.90;;;;;;5059476;28;20040;-67
2023/01/24 13:14:17;;;;;;;13.00;6.57;;;3.70;99.90;;;;;;5059006;28;20503;-67
2023/01/24 13:17:04;;;;;;;14.68;7.05;;;3.70;99.90;;;;;;5065628;28;20040;-68
2023/01/24 13:19:48;;;;;;;14.15;7.15;;;3.70;99.90;;;;;;5067633;28;20048;-67
2023/01/24 13:22:41;;;;;;;14.88;6.65;;;3.70;99.90;;;;;;5061258;28;20068;-67
2023/01/24 13:25:21;;;;;;;13.10;6.88;;;3.70;99.90;;;;;;5069340;28;20482;-67
2023/01/24 13:28:09;;;;;;;16.65;6.90;;;3.70;99.90;;;;;;5063056;28;20101;-68
2023/01/24 13:31:13;;;;;;;15.77;6.85;;;3.70;99.90;;;;;;5057830;28;20098;-67
2023/01/24 13:33:55;;;;;;;15.57;7.03;;;3.70;99.90;;;;;;5058852;28;20053;-67
2023/01/24 13:36:26;;;;;;;14.60;7.00;;;3.70;99.90;;;;;;5063539;28;20074;-67
2023/01/24 13:38:52;;;;;;;14.18;6.57;;;3.60;99.90;;;;;;5065475;28;20040;-67
2023/01/24 13:41:38;;;;;;;12.57;6.73;;;3.60;99.90;;;;;;5056153;28;20441;-67
2023/01/24 13:44:06;;;;;;;14.80;7.05;;;3.60;99.90;;;;;;5060943;28;20051;-67
2023/01/24 13:46:42;;;;;;;13.98;6.88;;;3.60;99.90;;;;;;5062559;28;20040;-67
2023/01/24 13:49:18;;;;;;;12.18;6.40;;;3.60;99.90;;;;;;5063723;28;20059;-67
2023/01/24 13:51:48;;;;;;;13.73;7.03;;;3.60;99.90;;;;;;5065239;28;20047;-67
2023/01/24 13:54:19;;;;;;;15.38;7.00;;;3.60;99.90;;;;;;5062784;28;20044;-67